Time;durP1;ratioP1;P1;durP2;ratioP2;P2;SDS_P1;SDS_P2;PMS_P1;PMS_P2;Temp;Humidity;BMP_temperature;BMP_pressure;BME280_temperature;BME280_humidity;BME280_pressure;Samples;Min_cycle;Max_cycle;Signal;HPM_P1;HPM_P2
2023/08/02 00:00:49;;;;;;;4.75;1.58;;;;;;;22.83;52.97;100059.13;4983471;28;20056;-68
2023/08/02 00:03:14;;;;;;;4.50;1.70;;;;;;;22.83;52.93;100053.81;4984095;28;20034;-69
2023/08/02 00:05:39;;;;;;;5.93;1.67;;;;;;;22.81;52.75;100047.00;4982181;28;20442;-68
2023/08/02 00:08:05;;;;;;;4.70;1.77;;;;;;;22.81;52.65;100052.31;4983198;28;20046;-68
2023/08/02 00:10:35;;;;;;;3.88;1.77;;;;;;;22.80;52.61;100053.34;4983867;28;20464;-71
2023/08/02 00:13:01;;;;;;;4.78;1.73;;;;;;;22.79;52.71;100055.16;4982929;28;20626;-70
2023/08/02 00:15:27;;;;;;;5.25;1.50;;;;;;;22.80;52.68;100050.69;4983914;28;20124;-73
2023/08/02 00:17:53;;;;;;;4.75;1.58;;;;;;;22.79;52.55;100049.00;4983213;28;20111;-71
2023/08/02 00:20:20;;;;;;;4.50;1.80;;;;;;;22.78;52.63;100055.31;4982918;28;20574;-68
2023/08/02 00:22:45;;;;;;;4.85;1.73;;;;;;;22.78;53.09;100050.00;4983196;28;20042;-72
2023/08/02 00:25:10;;;;;;;4.40;1.60;;;;;;;22.77;52.57;100051.84;4983489;28;20236;-69
2023/08/02 00:27:36;;;;;;;3.75;1.48;;;;;;;22.78;52.57;100044.69;4981541;28;20590;-70
2023/08/02 00:30:01;;;;;;;5.03;1.58;;;;;;;22.77;52.77;100038.56;4983859;28;20038;-69
2023/08/02 00:32:27;;;;;;;3.63;1.33;;;;;;;22.77;52.51;100045.72;4983273;28;20080;-68
2023/08/02 00:34:54;;;;;;;3.63;1.75;;;;;;;22.76;52.63;100063.47;4982662;28;20077;-73
2023/08/02 00:37:22;;;;;;;4.75;1.58;;;;;;;22.75;52.87;100045.88;4983409;28;20030;-70
2023/08/02 00:39:52;;;;;;;3.75;1.40;;;;;;;22.74;53.04;100033.59;4982859;28;20034;-69
2023/08/02 00:42:18;;;;;;;4.25;1.70;;;;;;;22.76;53.01;100038.75;4980809;28;20150;-69
2023/08/02 00:44:43;;;;;;;3.53;1.50;;;;;;;22.75;52.74;100031.78;4983115;28;20034;-70
2023/08/02 00:47:09;;;;;;;5.07;1.65;;;;;;;22.75;53.16;100032.59;4982885;28;20052;-74
2023/08/02 00:49:34;;;;;;;5.40;1.60;;;;;;;22.74;52.66;100014.19;4982676;28;20128;-75
2023/08/02 00:51:59;;;;;;;5.25;1.50;;;;;;;22.74;52.95;100014.19;4982511;28;20924;-72
2023/08/02 00:54:25;;;;;;;4.90;1.90;;;;;;;22.73;53.06;100007.22;4982913;28;20073;-74
2023/08/02 00:56:50;;;;;;;3.17;1.50;;;;;;;22.73;53.10;100000.09;4982432;28;20081;-70
2023/08/02 00:59:16;;;;;;;4.32;1.65;;;;;;;22.72;52.89;100003.75;4982983;28;20112;-70
2023/08/02 01:01:41;;;;;;;6.05;1.45;;;;;;;22.71;52.98;99999.41;4982115;28;20093;-75
2023/08/02 01:04:06;;;;;;;5.15;1.40;;;;;;;22.72;53.03;99995.78;4980986;28;20049;-69
2023/08/02 01:06:37;;;;;;;4.47;1.48;;;;;;;22.72;53.00;99998.44;4982801;28;20034;-71
2023/08/02 01:09:36;;;;;;;3.95;1.30;;;;;;;22.71;52.92;99998.59;4997746;28;20038;-71
2023/08/02 01:12:09;;;;;;;3.95;1.40;;;;;;;22.70;52.80;99989.81;4981053;28;20104;-70
2023/08/02 01:14:41;;;;;;;4.13;1.42;;;;;;;22.72;52.78;100000.28;4981637;28;20054;-70
2023/08/02 01:17:09;;;;;;;5.30;1.48;;;;;;;22.70;53.22;100011.06;4981993;28;20034;-73
2023/08/02 01:19:34;;;;;;;5.00;1.40;;;;;;;22.70;53.25;100000.44;4982883;28;20105;-70
2023/08/02 01:21:59;;;;;;;5.70;1.83;;;;;;;22.71;53.01;100003.91;4981671;28;20499;-74
2023/08/02 01:24:31;;;;;;;5.97;2.00;;;;;;;22.70;53.19;99996.94;4982270;28;20069;-69
2023/08/02 01:26:57;;;;;;;5.20;1.70;;;;;;;22.69;53.00;99985.50;4982254;28;20038;-74
2023/08/02 01:29:26;;;;;;;3.53;1.40;;;;;;;22.69;53.30;99987.34;4982212;28;20035;-74
2023/08/02 01:31:54;;;;;;;4.60;1.73;;;;;;;22.69;53.08;99988.16;4982121;28;20037;-70
2023/08/02 01:34:20;;;;;;;6.55;1.90;;;;;;;22.68;52.84;99978.53;4980873;28;20093;-70
2023/08/02 01:36:46;;;;;;;5.13;1.58;;;;;;;22.68;53.36;99980.38;4981605;28;20085;-71
2023/08/02 01:39:11;;;;;;;4.25;1.50;;;;;;;22.68;53.15;99985.66;4981575;28;20405;-70
2023/08/02 01:41:37;;;;;;;6.03;1.30;;;;;;;22.69;52.89;99971.41;4981583;28;20073;-77
2023/08/02 01:44:02;;;;;;;3.95;1.40;;;;;;;22.68;53.21;99965.25;4981728;28;20122;-70
2023/08/02 01:46:27;;;;;;;3.83;1.50;;;;;;;22.67;52.86;99960.94;4981506;28;20030;-78
2023/08/02 01:48:53;;;;;;;5.15;1.65;;;;;;;22.66;53.12;99953.16;4982071;28;20117;-70
2023/08/02 01:51:18;;;;;;;4.75;1.77;;;;;;;22.67;53.43;99954.78;4981587;28;20479;-76
2023/08/02 01:53:43;;;;;;;3.30;1.23;;;;;;;22.67;52.98;99946.81;4981305;28;20514;-69
2023/08/02 01:56:09;;;;;;;4.35;1.50;;;;;;;22.65;53.32;99944.34;4981559;28;20264;-73
2023/08/02 01:58:34;;;;;;;4.88;1.65;;;;;;;22.67;53.31;99946.81;4981095;28;20034;-70
2023/08/02 02:00:59;;;;;;;5.47;1.70;;;;;;;22.66;53.00;99935.38;4981095;28;20038;-72
2023/08/02 02:03:24;;;;;;;4.55;1.42;;;;;;;22.66;53.13;99932.72;4981997;28;20403;-70
2023/08/02 02:05:52;;;;;;;4.53;1.60;;;;;;;22.64;53.31;99924.13;4981245;28;20137;-72
2023/08/02 02:08:17;;;;;;;4.22;1.50;;;;;;;22.65;53.21;99923.09;4981468;28;20276;-70
2023/08/02 02:10:50;;;;;;;3.93;1.40;;;;;;;22.63;53.18;99907.34;4980913;28;20043;-70
2023/08/02 02:13:17;;;;;;;4.57;1.58;;;;;;;22.64;52.76;99909.00;4981400;28;20331;-70
2023/08/02 02:15:42;;;;;;;4.25;1.23;;;;;;;22.64;53.19;99902.88;4980705;28;20034;-72
2023/08/02 02:18:08;;;;;;;4.15;1.45;;;;;;;22.64;53.11;99898.38;4980786;28;20050;-77
2023/08/02 02:20:34;;;;;;;5.43;1.35;;;;;;;22.63;53.24;99887.94;4980875;28;20038;-71
2023/08/02 02:22:59;;;;;;;5.93;1.98;;;;;;;22.58;53.15;99877.84;4981322;28;20030;-77
2023/08/02 02:25:24;;;;;;;4.03;1.52;;;;;;;22.63;53.00;99875.47;4981075;28;20061;-70
2023/08/02 02:27:50;;;;;;;4.15;1.40;;;;;;;22.61;52.88;99853.59;4980372;28;20038;-73
2023/08/02 02:30:15;;;;;;;4.27;1.70;;;;;;;22.61;53.17;99850.94;4981606;28;20034;-69
2023/08/02 02:32:40;;;;;;;4.38;1.60;;;;;;;22.62;53.11;99841.97;4981147;28;20500;-73
2023/08/02 02:35:06;;;;;;;5.45;1.75;;;;;;;22.63;53.04;99848.09;4980744;28;20128;-70
2023/08/02 02:37:31;;;;;;;5.63;1.90;;;;;;;22.61;53.23;99850.94;4981232;28;20904;-69
2023/08/02 02:39:57;;;;;;;4.40;1.70;;;;;;;22.61;52.94;99848.28;4980556;28;20121;-70
2023/08/02 02:42:22;;;;;;;5.47;1.55;;;;;;;22.60;53.00;99846.63;4980487;28;20259;-70
2023/08/02 02:44:47;;;;;;;4.25;1.50;;;;;;;22.61;52.91;99844.81;4980937;28;20049;-69
2023/08/02 02:47:12;;;;;;;5.22;1.60;;;;;;;22.59;53.22;99836.22;4981064;28;20041;-69
2023/08/02 02:49:38;;;;;;;5.38;1.90;;;;;;;22.60;53.14;99841.31;4980802;28;20634;-69
2023/08/02 02:52:04;;;;;;;4.18;1.60;;;;;;;22.59;53.28;99841.53;4981015;28;20038;-76
2023/08/02 02:54:29;;;;;;;3.40;1.42;;;;;;;22.60;53.01;99846.63;4981054;28;20034;-69
2023/08/02 02:56:55;;;;;;;4.43;1.75;;;;;;;22.60;53.42;99853.78;4980234;28;20041;-70
2023/08/02 02:59:20;;;;;;;5.10;1.65;;;;;;;22.59;53.39;99834.38;4981240;28;20034;-69
2023/08/02 03:01:45;;;;;;;5.35;1.63;;;;;;;22.59;53.42;99822.94;4980139;28;20050;-74
2023/08/02 03:04:10;;;;;;;4.85;1.58;;;;;;;22.59;53.43;99820.28;4981018;28;20042;-75
2023/08/02 03:06:36;;;;;;;4.95;2.25;;;;;;;22.59;53.08;99823.75;4980840;28;20034;-69
2023/08/02 03:09:02;;;;;;;4.75;1.80;;;;;;;22.59;53.07;99796.38;4980491;28;20034;-73
2023/08/02 03:11:27;;;;;;;4.30;1.88;;;;;;;22.59;53.02;99783.09;4980715;28;20027;-76
2023/08/02 03:13:52;;;;;;;3.83;1.45;;;;;;;22.58;53.34;99773.47;4980690;28;20092;-69
2023/08/02 03:16:18;;;;;;;4.28;1.50;;;;;;;22.58;53.07;99763.66;4980047;28;20049;-75
2023/08/02 03:18:43;;;;;;;4.60;1.70;;;;;;;22.57;53.11;99756.72;4980955;28;20384;-69
2023/08/02 03:21:08;;;;;;;3.65;1.52;;;;;;;22.55;53.42;99752.59;4980545;28;20033;-75
2023/08/02 03:23:34;;;;;;;5.38;1.60;;;;;;;22.58;53.49;99752.25;4980582;28;20446;-75
2023/08/02 03:26:00;;;;;;;4.00;1.45;;;;;;;22.58;53.46;99744.28;4980444;28;20041;-74
2023/08/02 03:28:25;;;;;;;4.28;1.52;;;;;;;22.57;53.28;99737.31;4982741;28;20034;-74
2023/08/02 03:30:54;;;;;;;4.20;1.65;;;;;;;22.56;53.72;99733.03;4983948;28;20038;-70
2023/08/02 03:33:19;;;;;;;4.32;1.50;;;;;;;22.57;53.16;99745.25;4984527;28;20034;-71
2023/08/02 03:35:45;;;;;;;4.10;1.73;;;;;;;22.57;53.46;99746.13;4983438;28;20034;-74
2023/08/02 03:38:10;;;;;;;5.30;1.70;;;;;;;22.57;53.70;99750.56;4984020;28;20037;-71
2023/08/02 03:40:35;;;;;;;4.03;1.60;;;;;;;22.56;53.44;99738.31;4984216;28;20252;-72
2023/08/02 03:43:02;;;;;;;4.10;1.35;;;;;;;22.55;53.38;99732.16;4983665;28;20233;-71
2023/08/02 03:45:27;;;;;;;3.85;1.35;;;;;;;22.56;53.57;99723.22;4983764;28;20048;-71
2023/08/02 03:47:53;;;;;;;5.57;1.77;;;;;;;22.56;53.22;99719.75;4984052;28;20034;-71
2023/08/02 03:50:18;;;;;;;4.03;1.70;;;;;;;22.56;53.59;99717.09;4983959;28;20283;-70
2023/08/02 03:52:43;;;;;;;7.32;1.80;;;;;;;22.55;53.33;99705.63;4983661;28;20550;-71
2023/08/02 03:55:08;;;;;;;4.63;1.98;;;;;;;22.55;53.39;99702.97;4983860;28;20034;-71
2023/08/02 03:57:34;;;;;;;4.25;1.60;;;;;;;22.55;53.90;99696.84;4983870;28;20038;-69
2023/08/02 03:59:59;;;;;;;3.92;1.48;;;;;;;22.55;53.24;99695.00;4983336;28;20030;-70
2023/08/02 04:02:24;;;;;;;4.28;1.88;;;;;;;22.55;53.50;99687.03;4983160;28;20038;-68
2023/08/02 04:04:50;;;;;;;4.10;1.70;;;;;;;22.56;53.71;99672.75;4983577;28;20072;-69
2023/08/02 04:07:15;;;;;;;4.63;1.77;;;;;;;22.56;53.78;99669.28;4982357;28;20133;-71
2023/08/02 04:09:40;;;;;;;7.20;1.60;;;;;;;22.54;53.52;99664.16;4983286;28;20038;-75
2023/08/02 04:12:06;;;;;;;4.03;1.50;;;;;;;22.55;53.38;99657.81;4983674;28;20412;-74
2023/08/02 04:14:32;;;;;;;4.53;1.67;;;;;;;22.55;53.86;99649.06;4983469;28;20050;-69
2023/08/02 04:16:57;;;;;;;3.65;1.48;;;;;;;22.54;53.53;99645.59;4983503;28;20042;-69
2023/08/02 04:19:22;;;;;;;4.03;1.40;;;;;;;22.54;53.45;99642.09;4982909;28;20065;-70
2023/08/02 04:21:48;;;;;;;4.60;1.50;;;;;;;22.54;53.62;99642.09;4983297;28;20167;-69
2023/08/02 04:24:13;;;;;;;4.30;1.67;;;;;;;22.54;53.83;99632.31;4983300;28;20030;-69
2023/08/02 04:26:40;;;;;;;4.35;1.73;;;;;;;22.54;53.51;99623.50;4982841;28;20493;-69
2023/08/02 04:29:06;;;;;;;3.63;1.55;;;;;;;22.54;53.71;99618.19;4983453;28;20574;-70
2023/08/02 04:31:31;;;;;;;3.80;1.40;;;;;;;22.53;53.91;99604.09;4983479;28;20121;-70
2023/08/02 04:33:56;;;;;;;4.22;1.85;;;;;;;22.53;53.49;99598.78;4982033;28;20479;-72
2023/08/02 04:36:21;;;;;;;3.55;1.40;;;;;;;22.53;53.79;99600.63;4983605;28;20415;-70
2023/08/02 04:38:47;;;;;;;3.53;1.38;;;;;;;22.53;53.95;99601.44;4982020;28;20040;-75
2023/08/02 04:41:15;;;;;;;4.40;1.73;;;;;;;22.52;53.57;99591.81;4982345;28;20104;-77
2023/08/02 04:43:41;;;;;;;4.05;1.65;;;;;;;22.52;53.46;99583.84;4983197;28;20038;-69
2023/08/02 04:46:06;;;;;;;4.18;1.65;;;;;;;22.52;53.90;99570.59;4983019;28;20073;-72
2023/08/02 04:48:32;;;;;;;4.45;1.77;;;;;;;22.53;54.05;99552.84;4983078;28;20100;-74
2023/08/02 04:50:57;;;;;;;5.43;1.60;;;;;;;22.52;53.88;99551.19;4982744;28;20031;-70
2023/08/02 04:53:22;;;;;;;4.50;1.60;;;;;;;22.53;53.41;99547.53;4982567;28;20278;-73
2023/08/02 04:55:47;;;;;;;4.00;1.65;;;;;;;22.53;53.66;99537.72;4981834;28;20732;-70
2023/08/02 04:58:13;;;;;;;4.78;1.65;;;;;;;22.52;53.65;99543.22;4981850;28;20030;-71
2023/08/02 05:00:38;;;;;;;4.43;1.52;;;;;;;22.53;53.66;99539.56;4982679;28;20046;-69
2023/08/02 05:03:04;;;;;;;3.90;1.90;;;;;;;22.52;53.98;99528.09;4982316;28;20142;-70
2023/08/02 05:05:30;;;;;;;4.10;1.70;;;;;;;22.52;53.98;99527.28;4979859;28;20381;-74
2023/08/02 05:07:55;;;;;;;3.95;1.63;;;;;;;22.53;53.90;99528.94;4980699;28;20050;-69
2023/08/02 05:10:21;;;;;;;4.22;1.73;;;;;;;22.51;53.71;99523.81;4982176;28;20089;-70
2023/08/02 05:12:46;;;;;;;3.63;1.70;;;;;;;22.51;53.78;99518.50;4982061;28;20392;-70
2023/08/02 05:15:11;;;;;;;5.13;1.88;;;;;;;22.51;54.10;99523.81;4981642;28;20034;-69
2023/08/02 05:17:37;;;;;;;4.60;1.80;;;;;;;22.52;53.72;99516.66;4981669;28;20073;-77
2023/08/02 05:20:02;;;;;;;3.97;1.83;;;;;;;22.50;53.68;99500.13;4982367;28;20303;-70
2023/08/02 05:22:28;;;;;;;4.75;1.70;;;;;;;22.52;53.98;99496.25;4982058;28;20041;-72
2023/08/02 05:24:54;;;;;;;4.97;1.80;;;;;;;22.51;54.23;99489.31;4982192;28;20038;-68
2023/08/02 05:27:20;;;;;;;6.78;1.95;;;;;;;22.51;53.95;99494.63;4982079;28;20108;-70
2023/08/02 05:29:45;;;;;;;5.10;2.00;;;;;;;22.53;54.14;99491.78;4980255;28;20129;-74
2023/08/02 05:32:11;;;;;;;5.10;1.95;;;;;;;22.52;54.01;99472.34;4982342;28;20154;-70
2023/08/02 05:34:36;;;;;;;4.38;1.80;;;;;;;22.52;54.19;99464.38;4981890;28;20046;-74
2023/08/02 05:37:02;;;;;;;4.70;2.30;;;;;;;22.53;54.43;99457.28;4981841;28;20039;-76
2023/08/02 05:39:27;;;;;;;4.57;1.77;;;;;;;22.52;54.11;99447.66;4982804;28;20038;-70
2023/08/02 05:41:53;;;;;;;5.07;2.00;;;;;;;22.51;53.99;99452.16;4982311;28;20070;-74
2023/08/02 05:44:19;;;;;;;5.43;1.88;;;;;;;22.51;54.59;99435.38;4982007;28;20491;-69
2023/08/02 05:46:44;;;;;;;5.25;1.90;;;;;;;22.51;54.31;99432.72;4981890;28;20053;-73
2023/08/02 05:49:11;;;;;;;5.40;2.00;;;;;;;22.49;54.40;99421.47;4983084;28;20038;-71
2023/08/02 05:51:36;;;;;;;4.93;2.05;;;;;;;22.50;54.25;99425.78;4982227;28;20038;-76
2023/08/02 05:54:02;;;;;;;4.30;1.95;;;;;;;22.50;54.42;99421.28;4983583;28;20043;-75
2023/08/02 05:56:27;;;;;;;4.55;1.80;;;;;;;22.51;54.64;99411.47;4983707;28;20124;-70
2023/08/02 05:58:52;;;;;;;5.40;1.98;;;;;;;22.50;54.55;99399.25;4983065;28;20045;-71
2023/08/02 06:01:18;;;;;;;4.60;1.60;;;;;;;22.49;54.85;99387.78;4983831;28;20042;-70
2023/08/02 06:03:43;;;;;;;4.72;1.77;;;;;;;22.49;54.82;99371.84;4982103;28;20034;-70
2023/08/02 06:06:09;;;;;;;5.25;1.92;;;;;;;22.51;54.96;99361.03;4982795;28;20133;-71
2023/08/02 06:08:36;;;;;;;4.68;1.98;;;;;;;22.50;54.76;99356.78;4982370;28;20061;-75
2023/08/02 06:11:03;;;;;;;3.40;1.60;;;;;;;22.51;54.57;99355.72;4983133;28;20054;-73
2023/08/02 06:13:29;;;;;;;4.50;2.00;;;;;;;22.50;54.73;99343.50;4982392;28;20100;-73
2023/08/02 06:15:54;;;;;;;4.38;2.10;;;;;;;22.52;54.96;99342.28;4983350;28;20451;-72
2023/08/02 06:18:20;;;;;;;4.43;2.00;;;;;;;22.52;54.80;99336.16;4981511;28;20117;-71
2023/08/02 06:20:45;;;;;;;4.57;1.80;;;;;;;22.52;54.85;99323.69;4981649;28;20042;-72
2023/08/02 06:23:10;;;;;;;4.85;1.80;;;;;;;22.51;54.78;99322.06;4982406;28;20407;-70
2023/08/02 06:25:38;;;;;;;4.88;1.88;;;;;;;22.50;55.06;99309.78;4981746;28;20634;-73
2023/08/02 06:28:04;;;;;;;3.58;1.70;;;;;;;22.48;55.41;99309.19;4980950;28;20061;-71
2023/08/02 06:30:30;;;;;;;4.10;1.80;;;;;;;22.51;55.49;99307.94;4980520;28;20136;-73
2023/08/02 06:32:57;;;;;;;4.60;1.75;;;;;;;22.50;55.32;99295.72;4981041;28;20084;-75
2023/08/02 06:35:23;;;;;;;4.75;1.95;;;;;;;22.51;55.22;99287.56;4981050;28;20125;-71
2023/08/02 06:37:48;;;;;;;4.40;1.70;;;;;;;22.53;55.26;99279.41;4981626;28;20038;-77
2023/08/02 06:40:13;;;;;;;6.95;1.80;;;;;;;22.53;55.24;99269.59;4982386;28;20031;-71
2023/08/02 06:42:39;;;;;;;4.63;1.88;;;;;;;22.53;55.18;99269.59;4982438;28;20092;-73
2023/08/02 06:45:05;;;;;;;3.53;1.70;;;;;;;22.52;55.24;99257.31;4981079;28;20042;-71
2023/08/02 06:47:30;;;;;;;4.60;1.60;;;;;;;22.52;55.26;99261.81;4980494;28;20129;-68
2023/08/02 06:49:55;;;;;;;3.60;1.48;;;;;;;22.50;55.49;99251.41;4981248;28;20097;-71
2023/08/02 06:52:20;;;;;;;5.10;1.90;;;;;;;22.49;55.46;99244.44;4980882;28;20109;-70
2023/08/02 06:54:46;;;;;;;4.22;1.80;;;;;;;22.51;55.21;99238.94;4987349;28;20038;-72
2023/08/02 06:57:11;;;;;;;6.07;1.90;;;;;;;22.51;55.21;99228.31;4984687;28;20034;-71
2023/08/02 06:59:36;;;;;;;4.30;1.70;;;;;;;22.51;55.55;99217.69;4981609;28;20483;-69
2023/08/02 07:02:02;;;;;;;5.43;1.60;;;;;;;22.51;55.19;99220.34;4983087;28;20046;-70
2023/08/02 07:04:27;;;;;;;6.65;2.30;;;;;;;22.52;55.54;99214.84;4986402;28;20042;-71
2023/08/02 07:06:53;;;;;;;4.95;1.90;;;;;;;22.53;55.32;99200.56;4985498;28;20511;-74
2023/08/02 07:09:18;;;;;;;5.05;2.00;;;;;;;22.55;55.33;99198.53;4989428;28;20034;-74
2023/08/02 07:11:44;;;;;;;7.10;1.90;;;;;;;22.53;55.74;99181.19;4985386;28;20034;-72
2023/08/02 07:14:09;;;;;;;3.58;1.58;;;;;;;22.53;55.42;99189.97;4984452;28;20058;-74
2023/08/02 07:16:34;;;;;;;6.13;1.75;;;;;;;22.53;55.50;99181.19;4985256;28;20030;-72
2023/08/02 07:19:02;;;;;;;3.53;1.63;;;;;;;22.54;55.43;99182.81;4985535;28;20042;-72
2023/08/02 07:21:29;;;;;;;3.67;1.50;;;;;;;22.52;55.63;99180.34;4985575;28;20113;-70
2023/08/02 07:23:55;;;;;;;9.40;2.25;;;;;;;22.53;55.79;99178.53;4985148;28;20064;-78
2023/08/02 07:26:22;;;;;;;4.80;1.55;;;;;;;22.54;55.48;99175.69;4985981;28;20471;-75
2023/08/02 07:28:48;;;;;;;3.97;1.60;;;;;;;22.55;55.86;99171.19;4985761;28;20125;-70
2023/08/02 07:31:14;;;;;;;7.22;2.20;;;;;;;22.50;56.13;99170.94;4980015;28;20049;-79
2023/08/02 07:33:42;;;;;;;7.85;1.77;;;;;;;22.42;56.26;99162.09;4984281;28;20069;-77
2023/08/02 07:36:19;;;;;;;5.82;1.60;;;;;;;22.37;56.36;99155.75;4984946;28;20040;-75
2023/08/02 07:38:45;;;;;;;4.32;1.40;;;;;;;22.33;56.77;99157.13;4984582;28;20535;-78
2023/08/02 07:41:11;;;;;;;3.63;1.27;;;;;;;22.30;56.75;99163.66;4985293;28;20038;-79
2023/08/02 07:43:36;;;;;;;3.33;1.45;;;;;;;22.25;56.65;99145.63;4984794;28;20038;-79
2023/08/02 07:46:02;;;;;;;4.05;1.42;;;;;;;22.24;56.95;99137.88;4983579;28;20126;-76
2023/08/02 07:48:27;;;;;;;4.43;1.70;;;;;;;22.22;57.19;99132.75;4984507;28;20045;-75
2023/08/02 07:50:53;;;;;;;3.97;1.40;;;;;;;22.24;57.28;99132.56;4983448;28;20030;-76
2023/08/02 07:53:18;;;;;;;6.00;1.50;;;;;;;22.24;56.99;99130.72;4983976;28;20479;-72
2023/08/02 07:55:43;;;;;;;4.82;1.40;;;;;;;22.24;57.07;99128.06;4983250;28;20380;-72
2023/08/02 07:58:09;;;;;;;4.28;1.50;;;;;;;22.25;57.10;99123.56;4983120;28;20038;-71
2023/08/02 08:00:34;;;;;;;6.10;1.65;;;;;;;22.28;56.57;99107.28;4983177;28;20855;-77
2023/08/02 08:03:03;;;;;;;4.88;2.67;;;;;;;22.28;56.83;99109.91;4983278;28;20030;-71
2023/08/02 08:05:31;;;;;;;5.72;1.40;;;;;;;22.27;57.08;99102.97;4983367;28;20041;-73
2023/08/02 08:07:56;;;;;;;3.50;1.30;;;;;;;22.27;57.37;99108.28;4983987;28;20487;-72
2023/08/02 08:10:22;;;;;;;3.15;1.20;;;;;;;22.27;57.11;99101.16;4983819;28;20070;-69
2023/08/02 08:12:47;;;;;;;9.45;1.52;;;;;;;22.26;57.31;99096.03;4982479;28;20098;-73
2023/08/02 08:15:13;;;;;;;3.17;1.20;;;;;;;22.27;56.98;99097.66;4983186;28;20668;-70
2023/08/02 08:17:38;;;;;;;5.35;1.35;;;;;;;22.27;57.23;99095.00;4981987;28;20476;-72
2023/08/02 08:20:05;;;;;;;3.03;1.40;;;;;;;22.27;57.17;99093.19;4982390;28;20125;-74
2023/08/02 08:22:30;;;;;;;2.40;1.30;;;;;;;22.26;57.22;99088.88;4982472;28;20118;-69
2023/08/02 08:24:55;;;;;;;3.40;1.30;;;;;;;22.28;57.18;99081.53;4982550;28;20410;-72
2023/08/02 08:27:21;;;;;;;4.68;1.50;;;;;;;22.28;57.55;99078.09;4982702;28;20038;-70
2023/08/02 08:29:46;;;;;;;5.00;1.50;;;;;;;22.28;57.58;99076.25;4982524;28;20128;-70
2023/08/02 08:32:12;;;;;;;3.50;1.27;;;;;;;22.28;57.91;99086.84;4982958;28;20040;-68
2023/08/02 08:34:37;;;;;;;4.32;1.30;;;;;;;22.28;57.70;99080.72;4982013;28;20044;-73
2023/08/02 08:37:03;;;;;;;4.65;1.30;;;;;;;22.28;57.98;99083.38;4982277;28;20518;-69
2023/08/02 08:39:28;;;;;;;3.05;1.10;;;;;;;22.28;57.60;99086.03;4982014;28;20476;-72
2023/08/02 08:41:53;;;;;;;4.10;1.15;;;;;;;22.29;57.65;99077.06;4982527;28;20038;-70
2023/08/02 08:44:19;;;;;;;2.55;1.13;;;;;;;22.28;57.88;99073.59;4982477;28;20033;-74
2023/08/02 08:46:46;;;;;;;4.00;1.38;;;;;;;22.32;57.74;99078.53;4981540;28;20038;-71
2023/08/02 08:49:11;;;;;;;3.00;1.25;;;;;;;22.32;57.66;99082.03;4982342;28;20100;-74
2023/08/02 08:51:42;;;;;;;3.20;1.20;;;;;;;22.31;57.97;99071.59;4983172;28;20030;-75
2023/08/02 08:54:16;;;;;;;2.65;1.15;;;;;;;22.32;58.20;99074.06;4982793;28;20518;-72
2023/08/02 08:56:42;;;;;;;4.88;1.20;;;;;;;22.34;58.17;99066.72;4983299;28;20419;-72
2023/08/02 08:59:08;;;;;;;2.97;1.00;;;;;;;22.34;58.25;99064.06;4982504;28;20034;-74
2023/08/02 09:01:35;;;;;;;2.47;1.10;;;;;;;22.32;58.28;99055.50;4982882;28;20392;-71
2023/08/02 09:04:02;;;;;;;2.28;1.00;;;;;;;22.35;58.69;99054.25;4982468;28;20049;-72
2023/08/02 09:06:28;;;;;;;6.80;1.70;;;;;;;22.35;58.27;99052.44;4982568;28;20049;-69
2023/08/02 09:08:54;;;;;;;2.80;1.10;;;;;;;22.37;58.17;99047.75;4997273;28;20042;-72
2023/08/02 09:11:19;;;;;;;2.33;1.10;;;;;;;22.38;58.30;99046.75;4982855;28;20041;-76
2023/08/02 09:13:45;;;;;;;2.78;1.20;;;;;;;22.39;58.44;99034.28;4982807;28;20141;-74
2023/08/02 09:16:13;;;;;;;3.03;1.10;;;;;;;22.39;58.50;99034.28;4981767;28;20022;-72
2023/08/02 09:18:40;;;;;;;3.05;1.00;;;;;;;22.37;58.42;99021.22;4982055;28;20088;-70
2023/08/02 09:21:08;;;;;;;4.50;1.20;;;;;;;22.38;58.29;99025.53;4982113;28;20553;-70
2023/08/02 09:23:33;;;;;;;5.38;1.10;;;;;;;22.38;58.63;99012.25;4979870;28;20034;-74
2023/08/02 09:26:16;;;;;;;2.25;1.00;;;;;;;22.38;58.45;99006.09;4981192;28;20415;-71
2023/08/02 09:29:00;;;;;;;3.17;1.13;;;;;;;22.39;58.36;99005.91;4995691;28;20038;-74
2023/08/02 09:31:28;;;;;;;4.18;0.95;;;;;;;22.40;58.48;98994.28;4981833;28;20483;-70
2023/08/02 09:33:54;;;;;;;2.67;1.10;;;;;;;22.41;58.16;99001.25;4981170;28;20089;-72
2023/08/02 09:36:28;;;;;;;2.80;0.90;;;;;;;22.40;58.16;99004.91;4981428;28;20290;-72
2023/08/02 09:38:54;;;;;;;2.88;1.08;;;;;;;22.40;58.43;99007.56;4982202;28;20061;-71
2023/08/02 09:41:23;;;;;;;2.40;1.10;;;;;;;22.42;58.79;99002.06;4981286;28;20713;-72
2023/08/02 09:43:51;;;;;;;4.95;1.48;;;;;;;22.44;58.25;98994.69;4980296;28;20065;-74
2023/08/02 09:46:29;;;;;;;3.65;1.00;;;;;;;22.43;59.12;98993.06;4981360;28;20038;-75
2023/08/02 09:48:59;;;;;;;2.22;1.00;;;;;;;22.43;58.68;98985.94;4979549;28;20537;-69
2023/08/02 09:51:39;;;;;;;2.25;0.90;;;;;;;22.46;58.94;98988.19;4981069;28;20084;-70
2023/08/02 09:54:05;;;;;;;2.40;1.02;;;;;;;22.48;58.71;98979.19;4981291;28;20030;-73
2023/08/02 09:56:32;;;;;;;2.53;1.00;;;;;;;22.47;57.98;98981.03;4981602;28;20120;-71
2023/08/02 09:58:58;;;;;;;2.47;0.90;;;;;;;22.48;58.21;98982.69;4980653;28;20034;-72
2023/08/02 10:01:24;;;;;;;2.75;0.90;;;;;;;22.48;57.93;98985.34;4981558;28;20088;-70
2023/08/02 10:03:57;;;;;;;3.47;0.90;;;;;;;22.49;59.29;98979.00;4980191;28;20586;-79
2023/08/02 10:06:28;;;;;;;4.40;1.00;;;;;;;22.48;58.48;98984.50;4980764;28;20048;-75
2023/08/02 10:09:00;;;;;;;1.30;0.70;;;;;;;22.49;59.56;98983.50;4981304;28;20038;-76
2023/08/02 10:11:27;;;;;;;2.80;0.90;;;;;;;22.51;58.32;98973.50;4983133;28;20080;-76
2023/08/02 10:13:55;;;;;;;2.50;0.90;;;;;;;22.51;58.13;98976.16;4981384;28;20858;-74
2023/08/02 10:16:23;;;;;;;4.72;1.15;;;;;;;22.54;58.33;98952.69;4981013;28;20045;-74
2023/08/02 10:18:52;;;;;;;1.95;0.82;;;;;;;22.54;57.79;98942.09;4980094;28;20038;-73
2023/08/02 10:21:19;;;;;;;3.20;0.93;;;;;;;22.53;58.38;98939.63;4981341;28;20034;-73
2023/08/02 10:23:45;;;;;;;4.05;1.08;;;;;;;22.54;58.86;98943.91;4980810;28;20037;-79
2023/08/02 10:26:10;;;;;;;4.03;0.82;;;;;;;22.55;58.57;98937.56;4980682;28;20027;-76
2023/08/02 10:28:37;;;;;;;2.50;0.77;;;;;;;22.55;58.45;98932.28;4980962;28;20136;-74
2023/08/02 10:31:07;;;;;;;5.38;1.00;;;;;;;22.70;58.05;98940.06;4980372;28;20049;-74
2023/08/02 10:33:32;;;;;;;4.07;0.80;;;;;;;22.83;57.48;98935.59;4980493;28;20057;-75
2023/08/02 10:36:06;;;;;;;2.70;0.90;;;;;;;22.88;57.73;98927.03;4979958;28;20859;-73
2023/08/02 10:38:47;;;;;;;5.13;0.90;;;;;;;22.92;57.28;98928.28;4981640;28;20424;-75
2023/08/02 10:41:16;;;;;;;2.78;0.93;;;;;;;22.93;57.04;98921.13;4981321;28;20499;-73
2023/08/02 10:43:51;;;;;;;3.58;1.00;;;;;;;22.91;57.39;98913.34;4981096;28;20038;-73
2023/08/02 10:46:24;;;;;;;5.60;1.40;;;;;;;22.89;57.11;98915.41;4981076;28;20031;-75
2023/08/02 10:48:50;;;;;;;10.85;2.72;;;;;;;22.92;57.52;98922.13;4996621;28;20022;-71
2023/08/02 10:51:31;;;;;;;8.90;3.28;;;;;;;22.91;58.63;98923.16;4981274;28;20042;-69
2023/08/02 10:54:23;;;;;;;6.68;3.17;;;;;;;22.94;58.87;98920.91;4979531;28;20053;-75
2023/08/02 10:57:08;;;;;;;9.63;2.67;;;;;;;22.94;58.68;98883.72;4981627;28;20051;-74
2023/08/02 10:59:33;;;;;;;6.65;2.55;;;;;;;22.98;58.68;98890.25;4981258;28;20113;-81
2023/08/02 11:02:10;;;;;;;8.73;3.03;;;;;;;22.93;58.35;98879.44;4980376;28;20133;-74
2023/08/02 11:04:37;;;;;;;7.70;2.83;;;;;;;22.95;58.96;98884.53;4978341;28;20279;-77
2023/08/02 11:07:21;;;;;;;7.68;2.92;;;;;;;22.94;58.91;98877.59;4980101;28;20038;-73
2023/08/02 11:09:51;;;;;;;9.48;2.95;;;;;;;22.93;58.54;98889.25;4980010;28;20121;-75
2023/08/02 11:12:21;;;;;;;9.07;3.35;;;;;;;22.95;58.35;98901.28;4980653;28;20557;-72
2023/08/02 11:14:50;;;;;;;7.75;3.08;;;;;;;22.94;58.31;98885.56;4980486;28;20116;-72
2023/08/02 11:17:20;;;;;;;7.50;2.50;;;;;;;22.96;58.94;98905.59;4981011;28;20156;-73
2023/08/02 11:19:48;;;;;;;8.30;2.60;;;;;;;22.95;58.40;98898.63;4980834;28;20402;-72
2023/08/02 11:22:13;;;;;;;7.10;2.30;;;;;;;22.97;58.61;98882.50;4980571;28;20213;-70
2023/08/02 11:24:47;;;;;;;9.95;2.65;;;;;;;22.94;58.36;98901.47;4980942;28;20030;-77
2023/08/02 11:27:23;;;;;;;5.47;2.22;;;;;;;22.96;58.70;98915.41;4980630;28;20037;-78
2023/08/02 11:30:06;;;;;;;5.80;2.00;;;;;;;22.93;59.37;98915.81;4980745;28;20046;-76